createdAt,value
2022-11-01T16:13:13.324Z,13.47
2022-11-01T16:14:11.611Z,13.42
2022-11-01T16:15:11.602Z,13.39
2022-11-01T16:16:11.566Z,13.37
2022-11-01T16:17:11.620Z,13.35
2022-11-01T16:18:11.541Z,13.31
2022-11-01T16:19:11.697Z,13.29
2022-11-01T16:20:11.564Z,13.24
2022-11-01T16:21:11.490Z,13.21
2022-11-01T16:22:11.527Z,13.19
2022-11-01T16:23:11.480Z,13.14
2022-11-01T16:24:11.573Z,13.09
2022-11-01T16:25:11.456Z,13.06
2022-11-01T16:26:11.469Z,13.02
2022-11-01T16:27:11.446Z,12.98
2022-11-01T16:28:11.396Z,12.94
2022-11-01T16:29:11.426Z,12.92
2022-11-01T16:30:11.407Z,12.88
2022-11-01T16:31:11.386Z,12.81
2022-11-01T16:32:11.416Z,12.80
2022-11-01T16:33:11.352Z,12.76
2022-11-01T16:34:11.328Z,12.73
2022-11-01T16:35:11.326Z,12.69
2022-11-01T16:36:11.363Z,12.66
2022-11-01T16:37:11.347Z,12.65
2022-11-01T16:38:11.295Z,12.61
2022-11-01T16:39:11.284Z,12.59
2022-11-01T16:40:11.244Z,12.56
2022-11-01T16:41:11.274Z,12.55
2022-11-01T16:42:11.283Z,12.51
2022-11-01T16:43:11.261Z,12.48
2022-11-01T16:44:11.254Z,12.45
2022-11-01T16:45:11.193Z,12.43
2022-11-01T16:46:11.170Z,12.40
2022-11-01T16:47:11.201Z,12.38
2022-11-01T16:48:11.232Z,12.36
2022-11-01T16:49:11.144Z,12.31
2022-11-01T16:50:11.173Z,12.29
2022-11-01T16:51:11.123Z,12.26
2022-11-01T16:52:11.138Z,12.23
2022-11-01T16:53:11.091Z,12.20
2022-11-01T16:54:11.109Z,12.18
2022-11-01T16:55:11.066Z,12.16
2022-11-01T16:56:35.082Z,12.11
2022-11-01T16:57:12.070Z,12.10
2022-11-01T16:58:11.009Z,12.07
2022-11-01T16:59:11.033Z,12.04
2022-11-01T17:00:11.029Z,12.01
2022-11-01T17:01:11.198Z,11.98
2022-11-01T17:02:11.111Z,11.97
2022-11-01T17:03:11.077Z,11.94
2022-11-01T17:04:11.000Z,11.91
2022-11-01T17:05:11.038Z,11.88
2022-11-01T17:06:10.951Z,11.86
2022-11-01T17:07:10.914Z,11.82
2022-11-01T17:08:10.929Z,11.79
2022-11-01T17:09:10.954Z,11.78
2022-11-01T17:10:10.991Z,11.76
2022-11-01T17:11:10.950Z,11.73
2022-11-01T17:12:10.855Z,11.70
2022-11-01T17:13:10.861Z,11.68
2022-11-01T17:14:10.858Z,11.68
2022-11-01T17:15:10.848Z,11.64
2022-11-01T17:16:10.794Z,11.64
2022-11-01T17:17:10.798Z,11.63
2022-11-01T17:18:10.764Z,11.61
2022-11-01T17:19:11.095Z,11.60
2022-11-01T17:20:10.724Z,11.59
2022-11-01T17:21:10.939Z,11.56
2022-11-01T17:22:10.727Z,11.51
2022-11-01T17:23:10.698Z,11.51
2022-11-01T17:24:10.694Z,11.48
2022-11-01T17:25:10.684Z,11.48
2022-11-01T17:26:10.694Z,11.45
2022-11-01T17:27:10.683Z,11.41
2022-11-01T17:28:10.635Z,11.41
2022-11-01T17:29:10.621Z,11.41
2022-11-01T17:30:10.639Z,11.38
2022-11-01T17:31:10.620Z,11.38
2022-11-01T17:32:10.580Z,11.38
2022-11-01T17:33:10.582Z,11.35
2022-11-01T17:34:10.568Z,11.33
2022-11-01T17:35:10.562Z,11.33
2022-11-01T17:36:10.644Z,11.30
2022-11-01T17:37:10.522Z,11.27
2022-11-01T17:38:10.508Z,11.27
2022-11-01T17:39:10.494Z,11.26
2022-11-01T17:40:10.487Z,11.24
2022-11-01T17:41:10.491Z,11.21
2022-11-01T17:42:10.495Z,11.21
2022-11-01T17:43:10.481Z,11.16
2022-11-01T17:44:10.474Z,11.16
2022-11-01T17:45:10.456Z,11.18
2022-11-01T17:46:10.455Z,11.15
2022-11-01T17:47:10.420Z,11.13
2022-11-01T17:48:10.426Z,11.13
2022-11-01T17:49:10.406Z,11.12
2022-11-01T17:50:10.432Z,11.12
2022-11-01T17:51:10.358Z,11.10
2022-11-01T17:52:10.381Z,11.08
2022-11-01T17:53:10.307Z,11.08
2022-11-01T17:54:10.636Z,11.08
2022-11-01T17:55:10.290Z,11.06
2022-11-01T17:56:10.265Z,11.05
2022-11-01T17:57:10.254Z,11.05
2022-11-01T17:58:10.283Z,11.03
2022-11-01T17:59:10.266Z,11.00
2022-11-01T18:00:10.233Z,11.00
2022-11-01T18:01:10.345Z,10.98
2022-11-01T18:02:10.288Z,10.94
2022-11-01T18:03:10.223Z,10.92
2022-11-01T18:04:10.162Z,10.91
2022-11-01T18:05:10.212Z,10.90
2022-11-01T18:06:10.136Z,10.90
2022-11-01T18:07:10.165Z,10.90
2022-11-01T18:08:10.150Z,10.88
2022-11-01T18:09:10.100Z,10.88
2022-11-01T18:10:10.090Z,10.87
2022-11-01T18:11:10.164Z,10.88
2022-11-01T18:12:10.084Z,10.90
2022-11-01T18:13:10.107Z,10.90
2022-11-01T18:14:10.069Z,10.88
2022-11-01T18:15:10.067Z,10.87
2022-11-01T18:16:10.090Z,10.90
2022-11-01T18:17:10.025Z,10.88
2022-11-01T18:18:10.616Z,10.87
2022-11-01T18:19:09.990Z,10.88
2022-11-01T18:20:10.022Z,10.87
2022-11-01T18:21:09.968Z,10.87
2022-11-01T18:22:09.945Z,10.85
2022-11-01T18:23:09.989Z,10.84
2022-11-01T18:24:14.211Z,10.84
2022-11-01T18:25:10.947Z,10.85
2022-11-01T18:26:09.910Z,10.83
2022-11-01T18:27:09.900Z,10.84
2022-11-01T18:28:09.864Z,10.83
2022-11-01T18:29:09.877Z,10.83
2022-11-01T18:30:09.881Z,10.83
2022-11-01T18:31:09.826Z,10.80
2022-11-01T18:32:09.809Z,10.80
2022-11-01T18:33:09.866Z,10.80
2022-11-01T18:34:09.781Z,10.79
2022-11-01T18:35:09.841Z,10.79
2022-11-01T18:36:09.783Z,10.77
2022-11-01T18:37:09.752Z,10.77
2022-11-01T18:38:09.775Z,10.76
2022-11-01T18:39:09.765Z,10.75
2022-11-01T18:40:09.714Z,10.75
2022-11-01T18:41:13.222Z,10.72
2022-11-01T18:42:09.735Z,10.69
2022-11-01T18:43:09.767Z,10.69
2022-11-01T18:44:09.663Z,10.67
2022-11-01T18:45:09.681Z,10.66
2022-11-01T18:46:24.679Z,10.65
2022-11-01T18:47:10.656Z,10.63
2022-11-01T18:48:09.682Z,10.61
2022-11-01T18:49:09.927Z,10.61
2022-11-01T18:50:15.494Z,10.59
2022-11-01T18:51:10.645Z,10.61
2022-11-01T18:52:09.562Z,10.59
2022-11-01T18:53:09.588Z,10.59
2022-11-01T18:54:09.583Z,10.58
2022-11-01T18:55:09.590Z,10.58
2022-11-01T18:56:09.511Z,10.58
2022-11-01T18:57:09.512Z,10.59
2022-11-01T18:58:09.542Z,10.59
2022-11-01T18:59:09.510Z,10.61
2022-11-01T19:00:09.481Z,10.63
2022-11-01T19:01:09.512Z,10.61
2022-11-01T19:02:09.514Z,10.61
2022-11-01T19:03:09.450Z,10.61
2022-11-01T19:04:09.421Z,10.63
2022-11-01T19:05:09.398Z,10.61
2022-11-01T19:06:09.377Z,10.63
2022-11-01T19:07:09.996Z,10.63
2022-11-01T19:08:11.433Z,10.63
2022-11-01T19:09:09.375Z,10.61
2022-11-01T19:10:09.358Z,10.61
2022-11-01T19:11:09.329Z,10.59
2022-11-01T19:12:09.315Z,10.61
2022-11-01T19:13:09.295Z,10.59
2022-11-01T19:14:09.304Z,10.58
2022-11-01T19:15:09.267Z,10.55
2022-11-01T19:16:09.321Z,10.55
2022-11-01T19:17:09.249Z,10.52
2022-11-01T19:18:09.263Z,10.51
2022-11-01T19:19:09.288Z,10.49
2022-11-01T19:20:09.214Z,10.44
2022-11-01T19:21:09.213Z,10.44
2022-11-01T19:22:09.184Z,10.42
2022-11-01T19:23:09.196Z,10.39
2022-11-01T19:24:10.233Z,10.38
2022-11-01T19:25:09.174Z,10.36
2022-11-01T19:26:09.143Z,10.36
2022-11-01T19:27:09.173Z,10.32
2022-11-01T19:28:09.131Z,10.32
2022-11-01T19:29:09.146Z,10.29
2022-11-01T19:30:09.070Z,10.29
2022-11-01T19:31:09.139Z,10.26
2022-11-01T19:32:09.060Z,10.25
2022-11-01T19:33:09.069Z,10.25
2022-11-01T19:34:09.079Z,10.20
2022-11-01T19:35:09.109Z,10.20
2022-11-01T19:36:09.039Z,10.17
2022-11-01T19:37:09.002Z,10.17
2022-11-01T19:38:08.988Z,10.14
2022-11-01T19:39:08.998Z,10.13
2022-11-01T19:40:08.983Z,10.11
2022-11-01T19:41:08.936Z,10.11
2022-11-01T19:42:08.964Z,10.05
2022-11-01T19:43:08.915Z,10.05
2022-11-01T19:44:08.927Z,10.03
2022-11-01T19:45:08.936Z,10.00
2022-11-01T19:46:08.895Z,9.99
2022-11-01T19:47:13.646Z,9.98
2022-11-01T19:48:09.845Z,9.96
2022-11-01T19:49:08.922Z,9.95
2022-11-01T19:50:08.825Z,9.93
2022-11-01T19:51:08.851Z,9.90
2022-11-01T19:52:08.826Z,9.89
2022-11-01T19:53:08.795Z,9.88
2022-11-01T19:54:08.804Z,9.84
2022-11-01T19:55:08.835Z,9.84
2022-11-01T19:56:08.811Z,9.82
2022-11-01T19:57:08.768Z,9.81
2022-11-01T19:58:08.724Z,9.78
2022-11-01T19:59:08.722Z,9.78
2022-11-01T20:00:08.802Z,9.77
2022-11-01T20:01:08.821Z,9.74
2022-11-01T20:02:10.333Z,9.74
2022-11-01T20:03:08.699Z,9.72
2022-11-01T20:04:08.641Z,9.72
2022-11-01T20:05:08.630Z,9.71
2022-11-01T20:06:08.649Z,9.71
2022-11-01T20:07:08.623Z,9.67
2022-11-01T20:08:08.619Z,9.67
2022-11-01T20:09:08.609Z,9.70
2022-11-01T20:10:08.620Z,9.66
2022-11-01T20:11:08.549Z,9.66
2022-11-01T20:12:08.571Z,9.63
2022-11-01T20:13:08.740Z,9.62
2022-11-01T20:14:08.571Z,9.62
2022-11-01T20:15:08.517Z,9.62
2022-11-01T20:16:08.524Z,9.62
2022-11-01T20:17:08.487Z,9.60
2022-11-01T20:18:08.909Z,9.60
2022-11-01T20:19:10.871Z,9.57
2022-11-01T20:20:08.446Z,9.56
2022-11-01T20:21:08.707Z,9.56
2022-11-01T20:22:08.476Z,9.55
2022-11-01T20:24:09.433Z,9.52
2022-11-01T20:25:08.377Z,9.52
2022-11-01T20:26:08.373Z,9.50
2022-11-01T20:27:08.364Z,9.48
2022-11-01T20:28:08.436Z,9.47
2022-11-01T20:29:08.344Z,9.47
2022-11-01T20:30:08.340Z,9.47
2022-11-01T20:31:08.325Z,9.45
2022-11-01T20:32:08.430Z,9.41
2022-11-01T20:33:08.281Z,9.41
2022-11-01T20:34:08.304Z,9.39
2022-11-01T20:35:08.251Z,9.37
2022-11-01T20:36:11.213Z,9.35
2022-11-01T20:37:27.594Z,9.35
2022-11-01T20:38:09.352Z,9.32
2022-11-01T20:39:10.480Z,9.34
2022-11-01T20:40:09.230Z,9.30
2022-11-01T20:41:08.247Z,9.30
2022-11-01T20:42:08.243Z,9.30
2022-11-01T20:43:08.179Z,9.29
2022-11-01T20:44:08.149Z,9.27
2022-11-01T20:45:08.157Z,9.24
2022-11-01T20:46:08.108Z,9.20
2022-11-01T20:47:08.099Z,9.21
2022-11-01T20:48:08.198Z,9.19
2022-11-01T20:49:08.111Z,9.17
2022-11-01T20:50:08.093Z,9.14
2022-11-01T20:51:08.054Z,9.11
2022-11-01T20:52:33.890Z,9.11
2022-11-01T20:53:09.078Z,9.11
2022-11-01T20:54:08.075Z,9.08
2022-11-01T20:55:08.053Z,9.04
2022-11-01T20:56:08.035Z,9.04
2022-11-01T20:57:15.630Z,9.03
2022-11-01T20:58:09.050Z,9.01
2022-11-01T20:59:07.975Z,9.00
2022-11-01T21:00:07.967Z,9.00
2022-11-01T21:01:08.081Z,8.98
2022-11-01T21:02:08.114Z,8.97
2022-11-01T21:03:07.922Z,8.97
2022-11-01T21:04:07.968Z,8.95
2022-11-01T21:05:07.865Z,8.95
2022-11-01T21:06:08.004Z,8.94
2022-11-01T21:07:07.894Z,8.92
2022-11-01T21:08:07.879Z,8.92
2022-11-01T21:09:07.854Z,8.89
2022-11-01T21:10:07.871Z,8.89
2022-11-01T21:11:07.886Z,8.87
2022-11-01T21:12:07.817Z,8.86
2022-11-01T21:13:07.764Z,8.85
2022-11-01T21:14:07.780Z,8.85
2022-11-01T21:15:07.779Z,8.82
2022-11-01T21:16:07.732Z,8.82
2022-11-01T21:17:07.741Z,8.80
2022-11-01T21:18:07.720Z,8.77
2022-11-01T21:19:07.742Z,8.77
2022-11-01T21:20:07.705Z,8.76
2022-11-01T21:21:07.720Z,8.76
2022-11-01T21:22:07.713Z,8.74
2022-11-01T21:23:07.637Z,8.72
2022-11-01T21:24:07.724Z,8.71
2022-11-01T21:25:07.648Z,8.71
2022-11-01T21:26:07.658Z,8.69
2022-11-01T21:27:07.624Z,8.69
2022-11-01T21:28:07.595Z,8.67
2022-11-01T21:29:07.582Z,8.67
2022-11-01T21:30:07.585Z,8.65
2022-11-01T21:31:07.610Z,8.64
2022-11-01T21:32:07.536Z,8.64
2022-11-01T21:33:07.587Z,8.61
2022-11-01T21:34:07.664Z,8.61
2022-11-01T21:35:07.503Z,8.61
2022-11-01T21:36:07.523Z,8.60
2022-11-01T21:37:07.463Z,8.58
2022-11-01T21:38:07.472Z,8.57
2022-11-01T21:39:07.461Z,8.57
2022-11-01T21:40:10.884Z,8.54
2022-11-01T21:41:08.411Z,8.54
2022-11-01T21:42:07.481Z,8.53
2022-11-01T21:43:07.391Z,8.52
2022-11-01T21:44:07.397Z,8.50
2022-11-01T21:45:07.370Z,8.47
2022-11-01T21:46:07.425Z,8.49
2022-11-01T21:47:07.370Z,8.47
2022-11-01T21:48:07.458Z,8.46
2022-11-01T21:49:07.336Z,8.44
2022-11-01T21:50:07.320Z,8.44
2022-11-01T21:51:07.312Z,8.42
2022-11-01T21:52:07.353Z,8.40
2022-11-01T21:53:07.333Z,8.36
2022-11-01T21:54:07.289Z,8.35
2022-11-01T21:55:07.333Z,8.35
2022-11-01T21:56:07.227Z,8.34
2022-11-01T21:57:07.253Z,8.32
2022-11-01T21:58:07.197Z,8.32
2022-11-01T21:59:07.198Z,8.31
2022-11-01T22:00:07.207Z,8.29
2022-11-01T22:01:07.317Z,8.29
2022-11-01T22:02:07.263Z,8.26
2022-11-01T22:03:07.391Z,8.28
2022-11-01T22:04:07.125Z,8.26
2022-11-01T22:05:07.174Z,8.25
2022-11-01T22:06:07.201Z,8.24
2022-11-01T22:07:07.082Z,8.24
2022-11-01T22:08:07.124Z,8.24
2022-11-01T22:09:07.055Z,8.24
2022-11-01T22:10:07.138Z,8.22
2022-11-01T22:11:07.033Z,8.22
2022-11-01T22:12:07.200Z,8.22
2022-11-01T22:13:08.197Z,8.21
2022-11-01T22:14:07.076Z,8.22
2022-11-01T22:15:06.991Z,8.21
2022-11-01T22:16:06.971Z,8.19
2022-11-01T22:17:06.981Z,8.21
2022-11-01T22:18:06.986Z,8.17
2022-11-01T22:19:06.929Z,8.16
2022-11-01T22:20:07.000Z,8.14
2022-11-01T22:21:06.969Z,8.14
2022-11-01T22:22:06.966Z,8.13
2022-11-01T22:23:07.143Z,8.14
2022-11-01T22:24:06.860Z,8.11
2022-11-01T22:25:06.871Z,8.11
2022-11-01T22:26:06.849Z,8.10
2022-11-01T22:27:06.847Z,8.10
2022-11-01T22:28:06.889Z,8.07
2022-11-01T22:29:06.800Z,8.07
2022-11-01T22:30:06.808Z,8.06
2022-11-01T22:31:06.786Z,8.03
2022-11-01T22:32:07.020Z,8.03
2022-11-01T22:33:07.016Z,8.01
2022-11-01T22:34:06.737Z,7.99
2022-11-01T22:35:06.717Z,7.99
2022-11-01T22:36:06.764Z,8.01
2022-11-01T22:37:06.719Z,7.98
2022-11-01T22:38:06.799Z,7.96
2022-11-01T22:39:06.688Z,7.95
2022-11-01T22:40:06.692Z,7.95
2022-11-01T22:41:06.655Z,7.92
2022-11-01T22:42:06.636Z,7.89
2022-11-01T22:43:06.861Z,7.86
2022-11-01T22:44:06.616Z,7.88
2022-11-01T22:45:06.698Z,7.88
2022-11-01T22:46:06.603Z,7.86
2022-11-01T22:47:06.590Z,7.85
2022-11-01T22:48:06.593Z,7.85
2022-11-01T22:49:06.650Z,7.83
2022-11-01T22:50:06.552Z,7.83
2022-11-01T22:51:06.526Z,7.83
2022-11-01T22:52:06.534Z,7.82
2022-11-01T22:53:06.739Z,7.83
2022-11-01T22:54:06.494Z,7.80
2022-11-01T22:55:06.751Z,7.80
2022-11-01T22:56:06.493Z,7.77
2022-11-01T22:57:06.483Z,7.78
2022-11-01T22:58:06.480Z,7.78
2022-11-01T22:59:06.409Z,7.77
2022-11-01T23:00:06.526Z,7.75
2022-11-01T23:01:06.447Z,7.77
2022-11-01T23:02:06.588Z,7.74
2022-11-01T23:03:06.789Z,7.74
2022-11-01T23:04:06.479Z,7.75
2022-11-01T23:05:06.351Z,7.75
2022-11-01T23:06:06.378Z,7.73
2022-11-01T23:07:06.328Z,7.74
2022-11-01T23:08:06.415Z,7.73
2022-11-01T23:09:06.296Z,7.74
2022-11-01T23:10:06.296Z,7.71
2022-11-01T23:11:06.285Z,7.71
2022-11-01T23:12:06.281Z,7.67
2022-11-01T23:13:06.649Z,7.68
2022-11-01T23:14:06.233Z,7.67
2022-11-01T23:15:06.264Z,7.67
2022-11-01T23:16:06.214Z,7.67
2022-11-01T23:17:06.219Z,7.70
2022-11-01T23:18:06.243Z,7.64
2022-11-01T23:19:06.173Z,7.63
2022-11-01T23:20:06.186Z,7.63
2022-11-01T23:21:06.154Z,7.63
2022-11-01T23:22:06.215Z,7.61
2022-11-01T23:23:06.521Z,7.59
2022-11-01T23:24:06.123Z,7.59
2022-11-01T23:25:06.126Z,7.56
2022-11-01T23:26:06.093Z,7.56
2022-11-01T23:27:06.103Z,7.58
2022-11-01T23:28:06.072Z,7.56
2022-11-01T23:29:06.036Z,7.56
2022-11-01T23:30:06.036Z,7.55
2022-11-01T23:31:06.052Z,7.56
2022-11-01T23:32:06.089Z,7.55
2022-11-01T23:33:06.402Z,7.54
2022-11-01T23:34:05.971Z,7.54
2022-11-01T23:35:06.011Z,7.55
2022-11-01T23:36:05.948Z,7.54
2022-11-01T23:37:06.123Z,7.52
2022-11-01T23:38:05.959Z,7.52
2022-11-01T23:39:05.930Z,7.52
2022-11-01T23:40:05.927Z,7.52
2022-11-01T23:41:05.921Z,7.52
2022-11-01T23:42:05.889Z,7.52
2022-11-01T23:43:06.152Z,7.51
2022-11-01T23:44:05.859Z,7.51
2022-11-01T23:45:05.853Z,7.49
2022-11-01T23:46:05.834Z,7.51
2022-11-01T23:47:05.844Z,7.49
2022-11-01T23:48:05.817Z,7.47
2022-11-01T23:49:05.807Z,7.47
2022-11-01T23:50:05.775Z,7.45
2022-11-01T23:51:05.756Z,7.44
2022-11-01T23:52:05.761Z,7.40
2022-11-01T23:53:06.190Z,7.40
2022-11-01T23:54:05.747Z,7.37
2022-11-01T23:55:05.742Z,7.37
2022-11-01T23:56:05.802Z,7.37
2022-11-01T23:57:05.733Z,7.37
2022-11-01T23:58:05.711Z,7.36
2022-11-01T23:59:05.745Z,7.34
